createdAt,value
2019-02-02T00:06:03.686Z,11.97
2019-02-02T00:12:09.772Z,10.97
2019-02-02T00:18:15.844Z,11.90
2019-02-02T00:24:21.923Z,10.70
2019-02-02T00:30:27.629Z,11.37
2019-02-02T00:36:33.442Z,11.57
2019-02-02T00:42:39.199Z,11.57
2019-02-02T00:48:45.021Z,11.27
2019-02-02T00:54:51.334Z,11.20
2019-02-02T01:00:58.856Z,12.23
2019-02-02T01:07:05.567Z,11.97
2019-02-02T01:13:11.416Z,15.00
2019-02-02T01:19:17.556Z,15.83
2019-02-02T01:25:23.435Z,17.00
2019-02-02T01:31:29.260Z,16.90
2019-02-02T01:37:35.040Z,15.97
2019-02-02T01:43:41.244Z,17.30
2019-02-02T01:49:47.305Z,16.87
2019-02-02T01:55:53.068Z,17.43
2019-02-02T02:01:59.250Z,18.50
2019-02-02T02:08:24.089Z,16.83
2019-02-02T02:14:30.517Z,16.90
2019-02-02T02:20:36.344Z,17.50
2019-02-02T02:26:42.259Z,17.47
2019-02-02T02:32:48.166Z,17.50
2019-02-02T02:38:54.089Z,15.77
2019-02-02T02:45:00.414Z,16.93
2019-02-02T02:51:06.366Z,17.10
2019-02-02T02:57:12.241Z,17.07
2019-02-02T03:03:18.529Z,16.43
2019-02-02T03:09:24.862Z,15.73
2019-02-02T03:15:31.294Z,17.10
2019-02-02T03:21:37.173Z,17.43
2019-02-02T03:27:42.970Z,19.20
2019-02-02T03:33:49.013Z,18.13
2019-02-02T03:39:54.755Z,18.83
2019-02-02T03:46:00.540Z,18.97
2019-02-02T03:52:06.301Z,19.00
2019-02-02T03:58:12.656Z,19.53
2019-02-02T04:04:18.403Z,19.77
2019-02-02T04:10:24.717Z,19.93
2019-02-02T04:16:31.068Z,20.17
2019-02-02T04:22:36.863Z,20.83
2019-02-02T04:28:42.768Z,21.27
2019-02-02T04:34:48.569Z,22.17
2019-02-02T04:40:54.894Z,21.77
2019-02-02T04:47:00.630Z,21.20
2019-02-02T04:53:06.583Z,20.40
2019-02-02T04:59:12.592Z,19.93
2019-02-02T05:05:18.601Z,19.90
2019-02-02T05:11:25.405Z,20.43
2019-02-02T05:17:31.822Z,19.47
2019-02-02T05:23:37.867Z,19.20
2019-02-02T05:29:43.571Z,19.87
2019-02-02T05:35:49.382Z,20.40
2019-02-02T05:41:55.476Z,20.90
2019-02-02T05:48:01.841Z,20.60
2019-02-02T05:54:07.645Z,20.53
2019-02-02T06:00:50.741Z,20.50
2019-02-02T06:06:56.749Z,22.13
2019-02-02T06:13:02.541Z,20.90
2019-02-02T06:19:08.476Z,21.30
2019-02-02T06:25:14.996Z,21.73
2019-02-02T06:31:20.983Z,22.43
2019-02-02T06:37:26.814Z,22.97
2019-02-02T06:43:32.875Z,22.90
2019-02-02T06:49:39.223Z,24.43
2019-02-02T06:55:45.326Z,23.27
2019-02-02T07:01:51.657Z,25.33
2019-02-02T07:07:57.742Z,23.70
2019-02-02T07:14:03.902Z,26.50
2019-02-02T07:20:12.598Z,27.83
2019-02-02T07:26:18.541Z,30.53
2019-02-02T07:32:24.440Z,30.40
2019-02-02T07:38:30.248Z,31.17
2019-02-02T07:44:36.137Z,30.23
2019-02-02T07:50:42.349Z,29.87
2019-02-02T07:56:48.498Z,32.30
2019-02-02T08:02:54.891Z,32.43
2019-02-02T08:09:00.578Z,33.93
2019-02-02T08:15:09.187Z,34.73
2019-02-02T08:21:15.823Z,37.97
2019-02-02T08:27:23.892Z,36.80
2019-02-02T08:33:32.592Z,38.20
2019-02-02T08:39:38.579Z,39.60
2019-02-02T08:45:44.498Z,40.30
2019-02-02T08:51:50.408Z,40.93
2019-02-02T08:57:58.350Z,39.47
2019-02-02T09:04:04.771Z,38.63
2019-02-02T09:10:15.224Z,36.83
2019-02-02T09:16:21.208Z,36.63
2019-02-02T09:22:27.332Z,36.60
2019-02-02T09:28:33.251Z,37.90
2019-02-02T09:34:39.496Z,37.80
2019-02-02T09:40:45.715Z,41.10
2019-02-02T09:46:51.894Z,41.80
2019-02-02T09:52:57.794Z,39.77
2019-02-02T09:59:03.643Z,39.63
2019-02-02T10:05:09.727Z,43.30
2019-02-02T10:11:15.589Z,37.80
2019-02-02T10:17:21.689Z,38.47
2019-02-02T10:23:27.605Z,35.80
2019-02-02T10:29:34.069Z,36.50
2019-02-02T10:35:39.970Z,36.47
2019-02-02T10:41:45.881Z,35.70
2019-02-02T10:47:52.132Z,34.80
2019-02-02T10:53:57.855Z,39.37
2019-02-02T11:00:03.671Z,37.30
2019-02-02T11:06:09.670Z,39.63
2019-02-02T11:12:15.819Z,38.83
2019-02-02T11:18:21.650Z,38.43
2019-02-02T11:24:27.762Z,37.33
2019-02-02T11:30:33.722Z,35.03
2019-02-02T11:36:39.873Z,36.83
2019-02-02T11:42:45.843Z,35.67
2019-02-02T11:48:51.546Z,38.27
2019-02-02T11:54:57.306Z,37.63
2019-02-02T12:01:03.384Z,37.30
2019-02-02T12:07:09.668Z,36.47
2019-02-02T12:13:16.596Z,39.67
2019-02-02T12:19:30.674Z,38.73
2019-02-02T12:25:36.626Z,40.27
2019-02-02T12:31:42.993Z,37.50
2019-02-02T12:37:49.437Z,37.93
2019-02-02T12:43:55.211Z,36.77
2019-02-02T12:50:01.255Z,38.23
2019-02-02T12:56:07.470Z,40.87
2019-02-02T13:02:13.320Z,41.83
2019-02-02T13:08:19.216Z,41.37
2019-02-02T13:14:24.942Z,40.43
2019-02-02T13:20:30.971Z,43.00
2019-02-02T13:26:37.075Z,46.47
2019-02-02T13:32:49.791Z,43.67
2019-02-02T13:38:50.921Z,46.40
2019-02-02T13:44:56.806Z,46.27
2019-02-02T13:51:02.568Z,46.97
2019-02-02T13:57:08.519Z,47.07
2019-02-02T14:03:14.254Z,49.33
2019-02-02T14:09:20.298Z,49.80
2019-02-02T14:15:26.053Z,48.27
2019-02-02T14:21:32.563Z,47.07
2019-02-02T14:27:38.733Z,45.13
2019-02-02T14:33:50.470Z,46.63
2019-02-02T14:39:56.760Z,47.77
2019-02-02T14:46:06.928Z,47.00
2019-02-02T14:52:12.792Z,45.13
2019-02-02T14:58:20.949Z,47.70
2019-02-02T15:04:26.811Z,46.43
2019-02-02T15:10:35.642Z,48.73
2019-02-02T15:16:41.510Z,47.77
2019-02-02T15:22:47.849Z,49.90
2019-02-02T15:28:55.146Z,49.43
2019-02-02T15:35:02.282Z,54.17
2019-02-02T15:41:08.021Z,51.63
2019-02-02T15:47:13.846Z,51.70
2019-02-02T15:53:19.613Z,56.10
2019-02-02T15:59:25.570Z,51.57
2019-02-02T16:05:33.561Z,53.33
2019-02-02T16:11:39.320Z,51.23
2019-02-02T16:17:45.168Z,53.67
2019-02-02T16:23:52.779Z,52.27
2019-02-02T16:29:58.576Z,53.23
2019-02-02T16:36:05.942Z,52.90
2019-02-02T16:42:11.635Z,53.30
2019-02-02T16:48:17.458Z,55.90
2019-02-02T16:54:23.356Z,52.67
2019-02-02T17:00:32.494Z,52.43
2019-02-02T17:06:38.468Z,52.97
2019-02-02T17:12:44.670Z,55.30
2019-02-02T17:18:50.726Z,53.90
2019-02-02T17:24:56.621Z,56.60
2019-02-02T17:31:02.460Z,58.63
2019-02-02T17:37:08.406Z,57.67
2019-02-02T17:43:14.280Z,56.37
2019-02-02T17:49:20.808Z,58.87
2019-02-02T17:55:26.759Z,60.17
2019-02-02T18:01:33.261Z,59.73
2019-02-02T18:07:39.443Z,57.03
2019-02-02T18:13:45.268Z,56.67
2019-02-02T18:19:51.654Z,57.67
2019-02-02T18:25:57.759Z,57.60
2019-02-02T18:32:12.701Z,54.13
2019-02-02T18:38:12.207Z,55.73
2019-02-02T18:44:20.513Z,54.10
2019-02-02T18:50:26.768Z,54.43
2019-02-02T18:56:33.890Z,58.90
2019-02-02T19:02:41.976Z,56.53
2019-02-02T19:08:48.170Z,55.93
2019-02-02T19:14:54.813Z,56.10
2019-02-02T19:21:00.764Z,55.40
2019-02-02T19:27:17.379Z,80.67
2019-02-02T19:33:26.170Z,55.67
2019-02-02T19:39:32.436Z,50.07
2019-02-02T19:45:38.243Z,52.13
2019-02-02T19:51:46.721Z,56.33
2019-02-02T19:57:53.345Z,59.23
2019-02-02T20:04:02.319Z,54.83
2019-02-02T20:10:11.469Z,48.63
2019-02-02T20:16:17.540Z,42.83
2019-02-02T20:22:23.674Z,42.80
2019-02-02T20:28:29.666Z,42.63
2019-02-02T20:34:38.599Z,40.03
2019-02-02T20:40:45.479Z,38.40
2019-02-02T20:46:51.578Z,43.23
2019-02-02T20:52:57.457Z,42.40
2019-02-02T20:59:03.530Z,41.03
2019-02-02T21:05:09.315Z,43.17
2019-02-02T21:11:15.330Z,42.40
2019-02-02T21:17:21.718Z,41.40
2019-02-02T21:23:27.676Z,44.83
2019-02-02T21:29:33.772Z,46.93
2019-02-02T21:35:40.272Z,43.47
2019-02-02T21:41:46.303Z,46.03
2019-02-02T21:47:52.197Z,44.63
2019-02-02T21:53:58.348Z,45.83
2019-02-02T22:00:04.657Z,46.27
2019-02-02T22:06:15.466Z,47.37
2019-02-02T22:12:18.199Z,47.10
2019-02-02T22:18:24.132Z,44.27
2019-02-02T22:24:30.795Z,46.10
2019-02-02T22:30:38.397Z,44.90
2019-02-02T22:36:44.728Z,43.57
2019-02-02T22:42:50.767Z,46.80
2019-02-02T22:48:56.704Z,51.07
2019-02-02T22:55:02.784Z,52.97
2019-02-02T23:01:36.710Z,50.77
2019-02-02T23:08:54.810Z,53.00
2019-02-02T23:16:13.364Z,52.00
2019-02-02T23:22:19.372Z,50.43
2019-02-02T23:28:25.237Z,50.53
2019-02-02T23:34:31.332Z,46.10
2019-02-02T23:40:37.130Z,50.73
2019-02-02T23:46:42.992Z,51.10
2019-02-02T23:52:48.859Z,50.70
2019-02-02T23:58:55.195Z,41.60
